Time;durP1;ratioP1;P1;durP2;ratioP2;P2;SDS_P1;SDS_P2;PMS_P1;PMS_P2;Temp;Humidity;BMP_temperature;BMP_pressure;BME280_temperature;BME280_humidity;BME280_pressure;Samples;Min_cycle;Max_cycle;Signal;HPM_P1;HPM_P2
2023/12/26 00:00:06;;;;;;;21.70;18.65;;;6.80;63.30;;;;;;348348;28;949;-59
2023/12/26 00:00:17;;;;;;;22.42;18.50;;;6.80;63.30;;;;;;348317;28;1213;-59
2023/12/26 00:00:28;;;;;;;22.85;18.25;;;6.80;63.30;;;;;;348241;28;1105;-58
2023/12/26 00:00:39;;;;;;;22.85;18.10;;;6.80;63.30;;;;;;348259;28;1103;-58
2023/12/26 00:00:49;;;;;;;22.30;18.02;;;6.80;63.20;;;;;;348322;28;909;-57
2023/12/26 00:01:00;;;;;;;21.80;17.80;;;6.80;63.20;;;;;;348359;28;1083;-60
2023/12/26 00:01:11;;;;;;;21.27;17.47;;;6.80;63.20;;;;;;348250;28;951;-58
2023/12/26 00:01:24;;;;;;;21.05;17.30;;;6.80;63.20;;;;;;348307;28;1008;-58
2023/12/26 00:01:34;;;;;;;20.27;17.20;;;6.80;63.20;;;;;;348283;28;1070;-59
2023/12/26 00:01:46;;;;;;;21.50;17.60;;;6.80;63.20;;;;;;348133;28;1486;-57
2023/12/26 00:01:57;;;;;;;22.33;17.42;;;6.80;63.20;;;;;;348294;28;1384;-59
2023/12/26 00:02:08;;;;;;;23.70;17.75;;;6.80;63.20;;;;;;348275;28;1008;-58
2023/12/26 00:02:19;;;;;;;22.85;17.77;;;6.80;63.30;;;;;;348183;28;2479;-58
2023/12/26 00:02:29;;;;;;;21.70;17.83;;;6.80;63.30;;;;;;348293;28;984;-58
2023/12/26 00:02:40;;;;;;;21.10;17.60;;;6.80;63.30;;;;;;348325;28;881;-59
2023/12/26 00:02:51;;;;;;;21.83;17.77;;;6.80;63.30;;;;;;348216;28;1119;-58
2023/12/26 00:03:06;;;;;;;20.70;17.33;;;6.80;63.30;;;;;;348312;28;1059;-58
2023/12/26 00:03:17;;;;;;;21.10;17.20;;;6.80;63.30;;;;;;348356;28;964;-58
2023/12/26 00:03:28;;;;;;;22.38;17.63;;;6.80;63.30;;;;;;348218;28;907;-58
2023/12/26 00:03:39;;;;;;;23.08;18.05;;;6.80;63.30;;;;;;348304;28;845;-58
2023/12/26 00:03:49;;;;;;;23.15;18.17;;;6.80;63.40;;;;;;348320;28;861;-60
2023/12/26 00:04:00;;;;;;;23.37;18.30;;;6.80;63.40;;;;;;348210;28;925;-58
2023/12/26 00:04:11;;;;;;;22.92;18.00;;;6.80;63.40;;;;;;348333;28;826;-57
2023/12/26 00:04:23;;;;;;;23.45;18.17;;;6.80;63.40;;;;;;348327;28;1034;-58
2023/12/26 00:04:34;;;;;;;23.75;18.25;;;6.80;63.40;;;;;;348237;28;931;-61
2023/12/26 00:04:44;;;;;;;23.08;18.02;;;6.80;63.40;;;;;;348319;28;1044;-58
2023/12/26 00:04:55;;;;;;;21.45;17.13;;;6.80;63.30;;;;;;348229;28;912;-59
2023/12/26 00:05:06;;;;;;;21.02;16.85;;;6.80;63.30;;;;;;348217;28;1150;-57
2023/12/26 00:05:17;;;;;;;22.10;17.27;;;6.80;63.30;;;;;;348253;28;1996;-60
2023/12/26 00:05:28;;;;;;;22.13;17.73;;;6.80;63.30;;;;;;348265;28;1306;-59
2023/12/26 00:05:41;;;;;;;21.17;17.47;;;6.80;63.20;;;;;;348197;28;1097;-59
2023/12/26 00:05:52;;;;;;;19.38;17.20;;;6.80;63.20;;;;;;348269;28;1001;-58
2023/12/26 00:06:03;;;;;;;19.45;17.27;;;6.80;63.20;;;;;;348213;28;1657;-58
2023/12/26 00:06:20;;;;;;;20.52;17.73;;;6.80;63.30;;;;;;348172;28;1117;-58
2023/12/26 00:06:31;;;;;;;21.23;18.08;;;6.80;63.30;;;;;;348310;28;1035;-57
2023/12/26 00:06:43;;;;;;;20.70;17.75;;;6.80;63.30;;;;;;348227;28;1134;-58
2023/12/26 00:06:54;;;;;;;21.25;17.83;;;6.80;63.30;;;;;;348231;28;1135;-59
2023/12/26 00:07:05;;;;;;;21.52;17.55;;;6.80;63.30;;;;;;348306;28;1939;-59
2023/12/26 00:07:16;;;;;;;22.02;17.58;;;6.80;63.30;;;;;;348230;28;1083;-59
2023/12/26 00:07:26;;;;;;;21.77;17.67;;;6.70;63.30;;;;;;348288;28;988;-58
2023/12/26 00:07:37;;;;;;;21.83;18.48;;;6.80;63.20;;;;;;348285;28;1067;-59
2023/12/26 00:07:48;;;;;;;20.90;18.30;;;6.80;63.20;;;;;;348245;28;1099;-59
2023/12/26 00:08:01;;;;;;;20.40;18.17;;;6.80;63.20;;;;;;348323;28;845;-60
2023/12/26 00:08:12;;;;;;;22.02;18.42;;;6.70;63.20;;;;;;348272;28;1062;-59
2023/12/26 00:08:22;;;;;;;22.08;18.23;;;6.70;63.20;;;;;;348190;28;1355;-59
2023/12/26 00:08:34;;;;;;;22.60;18.05;;;6.70;63.30;;;;;;348299;28;1016;-58
2023/12/26 00:08:45;;;;;;;22.10;17.92;;;6.70;63.30;;;;;;348306;28;1091;-58
2023/12/26 00:08:55;;;;;;;22.20;18.00;;;6.70;63.30;;;;;;348168;28;1053;-59
2023/12/26 00:09:06;;;;;;;21.65;17.67;;;6.70;63.30;;;;;;348226;28;1067;-59
2023/12/26 00:09:17;;;;;;;22.38;17.52;;;6.80;63.40;;;;;;348290;28;854;-59
2023/12/26 00:09:28;;;;;;;21.80;17.55;;;6.80;63.40;;;;;;348236;28;901;-58
2023/12/26 00:09:42;;;;;;;21.67;17.60;;;6.70;63.40;;;;;;348354;28;850;-59
2023/12/26 00:09:53;;;;;;;21.40;17.73;;;6.70;63.40;;;;;;348208;28;996;-58
2023/12/26 00:10:04;;;;;;;21.50;17.73;;;6.70;63.40;;;;;;348306;28;1086;-59
2023/12/26 00:10:15;;;;;;;21.80;17.88;;;6.70;63.50;;;;;;348199;28;1289;-58
2023/12/26 00:10:26;;;;;;;22.10;17.55;;;6.70;63.50;;;;;;348237;28;974;-59
2023/12/26 00:10:37;;;;;;;22.83;17.30;;;6.70;63.50;;;;;;348305;28;916;-60
2023/12/26 00:10:47;;;;;;;23.63;17.80;;;6.70;63.50;;;;;;348318;28;1028;-58
2023/12/26 00:10:58;;;;;;;23.67;18.15;;;6.70;63.50;;;;;;348199;28;1392;-58
2023/12/26 00:11:09;;;;;;;22.42;17.83;;;6.70;63.50;;;;;;348213;28;1107;-58
2023/12/26 00:11:20;;;;;;;22.42;17.95;;;6.70;63.50;;;;;;348246;28;1298;-58
2023/12/26 00:11:31;;;;;;;22.13;17.77;;;6.70;63.50;;;;;;348266;28;2018;-59
2023/12/26 00:11:43;;;;;;;23.07;17.83;;;6.70;63.50;;;;;;348282;28;896;-58
2023/12/26 00:11:54;;;;;;;22.67;17.92;;;6.70;63.50;;;;;;348240;28;1159;-59
2023/12/26 00:12:05;;;;;;;22.55;18.23;;;6.70;63.50;;;;;;348367;28;846;-58
2023/12/26 00:12:15;;;;;;;22.38;18.35;;;6.70;63.60;;;;;;348344;28;1012;-59
2023/12/26 00:12:26;;;;;;;22.70;18.05;;;6.70;63.60;;;;;;348334;28;948;-59
2023/12/26 00:12:37;;;;;;;21.92;17.88;;;6.70;63.60;;;;;;348315;28;1043;-59
2023/12/26 00:12:48;;;;;;;22.15;17.63;;;6.70;63.60;;;;;;348229;28;899;-58
2023/12/26 00:13:00;;;;;;;21.95;17.67;;;6.70;63.60;;;;;;348326;28;995;-58
2023/12/26 00:13:11;;;;;;;22.15;17.58;;;6.70;63.60;;;;;;348326;28;1042;-59
2023/12/26 00:13:22;;;;;;;22.03;17.87;;;6.70;63.70;;;;;;348264;28;1481;-59
2023/12/26 00:13:33;;;;;;;22.38;17.48;;;6.70;63.70;;;;;;348329;28;869;-58
2023/12/26 00:13:43;;;;;;;21.38;17.17;;;6.70;63.70;;;;;;348306;28;1436;-58
2023/12/26 00:13:54;;;;;;;21.00;16.77;;;6.70;63.70;;;;;;348277;28;1083;-58
2023/12/26 00:14:05;;;;;;;20.10;16.70;;;6.70;63.70;;;;;;348338;28;1071;-58
2023/12/26 00:14:17;;;;;;;20.23;16.95;;;6.70;63.70;;;;;;348334;28;1084;-59
2023/12/26 00:14:28;;;;;;;20.92;17.50;;;6.70;63.70;;;;;;348295;28;1098;-58
2023/12/26 00:14:38;;;;;;;20.23;17.27;;;6.70;63.60;;;;;;348269;28;1051;-58
2023/12/26 00:14:49;;;;;;;19.67;17.30;;;6.80;63.60;;;;;;348327;28;972;-58
2023/12/26 00:15:00;;;;;;;20.10;17.50;;;6.70;63.60;;;;;;348307;28;829;-60
2023/12/26 00:15:11;;;;;;;21.40;17.33;;;6.70;63.60;;;;;;348310;28;1051;-58
2023/12/26 00:15:21;;;;;;;21.17;17.00;;;6.70;63.60;;;;;;348352;28;1047;-60
2023/12/26 00:15:32;;;;;;;21.35;16.95;;;6.70;63.60;;;;;;348186;28;1072;-58
2023/12/26 00:15:43;;;;;;;20.70;17.30;;;6.70;63.60;;;;;;348549;28;1096;-59
2023/12/26 00:15:54;;;;;;;21.52;17.35;;;6.70;63.60;;;;;;348311;28;1551;-58
2023/12/26 00:16:05;;;;;;;20.77;17.65;;;6.70;63.60;;;;;;348386;28;1060;-60
2023/12/26 00:16:16;;;;;;;20.77;17.58;;;6.70;63.60;;;;;;348622;28;1009;-58
2023/12/26 00:16:27;;;;;;;21.26;17.98;;;6.70;63.60;;;;;;348371;28;1065;-59
2023/12/26 00:16:40;;;;;;;22.20;17.97;;;6.70;63.60;;;;;;348487;28;1624;-60
2023/12/26 00:16:50;;;;;;;21.50;17.45;;;6.70;63.70;;;;;;348466;28;1128;-59
2023/12/26 00:17:01;;;;;;;22.42;17.13;;;6.70;63.70;;;;;;348502;28;1033;-58
2023/12/26 00:17:12;;;;;;;21.27;16.83;;;6.70;63.60;;;;;;348728;28;921;-60
2023/12/26 00:17:23;;;;;;;21.10;17.33;;;6.70;63.60;;;;;;348665;28;1099;-58
2023/12/26 00:17:34;;;;;;;21.10;17.38;;;6.70;63.60;;;;;;348520;28;1107;-58
2023/12/26 00:17:44;;;;;;;22.70;17.75;;;6.70;63.50;;;;;;348380;28;1426;-58
2023/12/26 00:17:55;;;;;;;22.60;17.60;;;6.70;63.50;;;;;;348670;28;1028;-59
2023/12/26 00:18:06;;;;;;;23.08;17.95;;;6.70;63.50;;;;;;348606;28;933;-58
2023/12/26 00:18:17;;;;;;;22.45;17.83;;;6.70;63.60;;;;;;348715;28;1072;-59
2023/12/26 00:18:28;;;;;;;21.98;17.77;;;6.70;63.60;;;;;;348598;28;1194;-58
2023/12/26 00:18:38;;;;;;;22.47;18.37;;;6.70;63.60;;;;;;348695;28;932;-59
2023/12/26 00:18:49;;;;;;;23.30;19.03;;;6.70;63.60;;;;;;348591;28;1000;-58
2023/12/26 00:19:00;;;;;;;25.08;19.42;;;6.70;63.60;;;;;;348551;28;837;-58
2023/12/26 00:19:11;;;;;;;23.92;19.33;;;6.70;63.60;;;;;;348542;28;1110;-58
2023/12/26 00:19:22;;;;;;;22.60;19.20;;;6.70;63.70;;;;;;348481;28;961;-62
2023/12/26 00:19:32;;;;;;;22.85;19.50;;;6.70;63.70;;;;;;348531;28;1099;-58
2023/12/26 00:19:45;;;;;;;23.90;19.50;;;6.70;63.70;;;;;;348478;28;1063;-58
2023/12/26 00:19:56;;;;;;;24.75;19.67;;;6.70;63.70;;;;;;348515;28;1060;-58
2023/12/26 00:20:07;;;;;;;24.33;19.30;;;6.70;63.70;;;;;;348542;28;1204;-58
2023/12/26 00:20:18;;;;;;;23.13;18.98;;;6.70;63.70;;;;;;348636;28;1755;-57
2023/12/26 00:20:29;;;;;;;22.73;18.60;;;6.70;63.70;;;;;;348662;28;1146;-59
2023/12/26 00:20:43;;;;;;;22.60;18.38;;;6.70;63.70;;;;;;348621;28;1860;-59
2023/12/26 00:20:54;;;;;;;22.45;18.45;;;6.70;63.70;;;;;;348501;28;1008;-59
2023/12/26 00:21:05;;;;;;;21.80;18.45;;;6.70;63.70;;;;;;348569;28;1052;-60
2023/12/26 00:21:16;;;;;;;22.80;18.58;;;6.70;63.70;;;;;;348430;28;952;-58
2023/12/26 00:21:26;;;;;;;23.50;18.73;;;6.70;63.70;;;;;;348570;28;1068;-58
2023/12/26 00:21:38;;;;;;;23.05;18.30;;;6.70;63.70;;;;;;348856;28;838;-60
2023/12/26 00:21:49;;;;;;;22.90;18.10;;;6.70;63.70;;;;;;348654;28;920;-59
2023/12/26 00:22:00;;;;;;;23.13;18.27;;;6.70;63.60;;;;;;348510;28;1167;-59
2023/12/26 00:22:10;;;;;;;23.30;18.45;;;6.70;63.60;;;;;;348507;28;1028;-59
2023/12/26 00:22:22;;;;;;;23.00;18.63;;;6.70;63.60;;;;;;348570;28;1159;-58
2023/12/26 00:22:34;;;;;;;22.48;18.60;;;6.70;63.60;;;;;;348520;28;950;-59
2023/12/26 00:22:45;;;;;;;21.75;18.50;;;6.70;63.60;;;;;;348365;28;1071;-59
2023/12/26 00:22:56;;;;;;;21.50;18.23;;;6.70;63.60;;;;;;348248;28;1047;-58
2023/12/26 00:23:07;;;;;;;22.23;18.25;;;6.70;63.60;;;;;;348192;28;1067;-57
2023/12/26 00:23:17;;;;;;;22.63;18.08;;;6.70;63.60;;;;;;348232;28;1119;-58
2023/12/26 00:23:28;;;;;;;22.73;17.55;;;6.70;63.60;;;;;;348272;28;1024;-58
2023/12/26 00:23:39;;;;;;;22.08;17.70;;;6.70;63.60;;;;;;348238;28;1178;-58
2023/12/26 00:23:50;;;;;;;22.60;17.93;;;6.70;63.60;;;;;;348232;28;1963;-58
2023/12/26 00:24:00;;;;;;;21.33;18.33;;;6.70;63.60;;;;;;348235;28;972;-58
2023/12/26 00:24:11;;;;;;;21.83;18.42;;;6.70;63.60;;;;;;348238;28;1032;-59
2023/12/26 00:24:22;;;;;;;22.48;18.25;;;6.70;63.60;;;;;;348306;28;1043;-59
2023/12/26 00:24:33;;;;;;;23.33;18.23;;;6.70;63.60;;;;;;348293;28;942;-58
2023/12/26 00:24:43;;;;;;;22.93;18.07;;;6.70;63.60;;;;;;348237;28;1108;-58
2023/12/26 00:24:55;;;;;;;22.23;17.95;;;6.70;63.60;;;;;;348206;28;1044;-60
2023/12/26 00:25:06;;;;;;;22.25;18.13;;;6.70;63.60;;;;;;348248;28;1207;-60
2023/12/26 00:25:17;;;;;;;21.48;18.05;;;6.70;63.60;;;;;;348222;28;1123;-58
2023/12/26 00:25:28;;;;;;;21.83;18.05;;;6.70;63.60;;;;;;348280;28;1008;-59
2023/12/26 00:25:38;;;;;;;22.35;17.75;;;6.70;63.60;;;;;;348301;28;830;-59
2023/12/26 00:25:49;;;;;;;23.08;17.70;;;6.70;63.60;;;;;;348251;28;1099;-59
2023/12/26 00:26:00;;;;;;;21.90;17.53;;;6.70;63.60;;;;;;348271;28;988;-59
2023/12/26 00:26:11;;;;;;;22.02;17.83;;;6.70;63.60;;;;;;348280;28;1008;-58
2023/12/26 00:26:22;;;;;;;22.15;17.95;;;6.70;63.60;;;;;;348236;28;1004;-58
2023/12/26 00:26:32;;;;;;;22.48;17.75;;;6.70;63.60;;;;;;348266;28;1095;-60
2023/12/26 00:26:43;;;;;;;23.15;17.83;;;6.70;63.70;;;;;;348242;28;903;-59
2023/12/26 00:26:54;;;;;;;22.60;17.58;;;6.70;63.80;;;;;;348295;28;895;-58
2023/12/26 00:27:05;;;;;;;21.23;17.60;;;6.70;63.80;;;;;;348227;28;1158;-61
2023/12/26 00:27:16;;;;;;;20.38;17.45;;;6.70;63.80;;;;;;348184;28;1044;-58
2023/12/26 00:27:27;;;;;;;20.75;17.85;;;6.70;63.70;;;;;;348218;28;1384;-60
2023/12/26 00:27:39;;;;;;;21.02;17.90;;;6.70;63.60;;;;;;348247;28;992;-59
2023/12/26 00:27:50;;;;;;;20.50;17.65;;;6.70;63.60;;;;;;348196;28;1585;-59
2023/12/26 00:28:01;;;;;;;20.65;17.60;;;6.70;63.60;;;;;;348213;28;1163;-61
2023/12/26 00:28:13;;;;;;;20.92;17.50;;;6.70;63.50;;;;;;348294;28;1055;-59
2023/12/26 00:28:25;;;;;;;23.70;17.67;;;6.70;63.60;;;;;;348220;28;1040;-59
2023/12/26 00:28:35;;;;;;;24.15;18.17;;;6.70;63.60;;;;;;348274;28;1020;-59
2023/12/26 00:28:46;;;;;;;22.42;18.38;;;6.70;63.60;;;;;;348277;28;948;-59
2023/12/26 00:28:57;;;;;;;21.40;17.70;;;6.70;63.60;;;;;;348208;28;1028;-60
2023/12/26 00:29:08;;;;;;;21.92;17.38;;;6.70;63.60;;;;;;348314;28;822;-59
2023/12/26 00:29:19;;;;;;;22.92;18.02;;;6.70;63.60;;;;;;348239;28;1046;-60
2023/12/26 00:29:29;;;;;;;22.48;17.98;;;6.70;63.60;;;;;;348169;28;1174;-59
2023/12/26 00:29:40;;;;;;;21.15;17.83;;;6.70;63.60;;;;;;348259;28;1004;-60
2023/12/26 00:29:51;;;;;;;21.30;18.10;;;6.70;63.60;;;;;;348228;28;1041;-59
2023/12/26 00:30:02;;;;;;;22.17;18.27;;;6.70;63.60;;;;;;348177;28;1068;-58
2023/12/26 00:30:13;;;;;;;22.77;18.55;;;6.70;63.60;;;;;;348208;28;1151;-58
2023/12/26 00:30:24;;;;;;;21.33;17.92;;;6.70;63.60;;;;;;348254;28;1016;-58
2023/12/26 00:30:34;;;;;;;21.37;18.03;;;6.70;63.60;;;;;;348200;28;1043;-59
2023/12/26 00:30:46;;;;;;;20.17;17.20;;;6.70;63.70;;;;;;348277;28;846;-58
2023/12/26 00:30:57;;;;;;;20.27;17.25;;;6.70;63.70;;;;;;348198;28;885;-59
2023/12/26 00:31:07;;;;;;;21.03;17.40;;;6.70;63.70;;;;;;348267;28;996;-58
2023/12/26 00:31:18;;;;;;;23.25;18.05;;;6.70;63.70;;;;;;348247;28;1048;-59
2023/12/26 00:31:29;;;;;;;24.77;18.58;;;6.70;63.70;;;;;;348160;28;1914;-59
2023/12/26 00:31:41;;;;;;;23.90;18.63;;;6.70;63.60;;;;;;348282;28;1020;-58
2023/12/26 00:31:51;;;;;;;22.50;18.27;;;6.70;63.60;;;;;;348298;28;866;-60
2023/12/26 00:32:02;;;;;;;21.23;17.70;;;6.70;63.60;;;;;;348231;28;1104;-58
2023/12/26 00:32:15;;;;;;;20.23;17.17;;;6.70;63.60;;;;;;348240;28;862;-60
2023/12/26 00:32:26;;;;;;;20.92;17.20;;;6.70;63.70;;;;;;348117;28;1181;-58
2023/12/26 00:32:36;;;;;;;21.88;17.13;;;6.70;63.70;;;;;;348151;28;1113;-58
2023/12/26 00:32:47;;;;;;;23.58;17.13;;;6.70;63.70;;;;;;348286;28;980;-59
2023/12/26 00:32:58;;;;;;;24.00;17.50;;;6.70;63.70;;;;;;348139;28;1155;-58
2023/12/26 00:33:09;;;;;;;23.40;17.83;;;6.70;63.70;;;;;;348250;28;984;-59
2023/12/26 00:33:19;;;;;;;21.23;17.55;;;6.70;63.70;;;;;;348090;28;1111;-59
2023/12/26 00:33:30;;;;;;;20.33;16.98;;;6.70;63.60;;;;;;348234;28;1248;-58
2023/12/26 00:33:41;;;;;;;21.25;17.00;;;6.70;63.60;;;;;;348223;28;896;-58
2023/12/26 00:33:53;;;;;;;21.63;16.95;;;6.70;63.60;;;;;;348234;28;1122;-58
2023/12/26 00:34:04;;;;;;;20.67;16.88;;;6.70;63.60;;;;;;348256;28;1015;-58
2023/12/26 00:34:14;;;;;;;20.37;17.10;;;6.70;63.60;;;;;;348235;28;1100;-59
2023/12/26 00:34:25;;;;;;;20.70;17.25;;;6.70;63.60;;;;;;348185;28;1008;-59
2023/12/26 00:34:36;;;;;;;21.00;17.33;;;6.70;63.60;;;;;;348190;28;1084;-58
2023/12/26 00:34:47;;;;;;;20.45;16.98;;;6.70;63.60;;;;;;348314;28;1056;-58
2023/12/26 00:34:58;;;;;;;20.40;16.58;;;6.70;63.60;;;;;;348240;28;790;-60
2023/12/26 00:35:09;;;;;;;20.63;16.27;;;6.70;63.60;;;;;;348180;28;1145;-58
2023/12/26 00:35:20;;;;;;;21.30;16.45;;;6.70;63.60;;;;;;348244;28;1096;-58
2023/12/26 00:35:30;;;;;;;20.73;16.85;;;6.60;63.60;;;;;;348246;28;1012;-59
2023/12/26 00:35:41;;;;;;;21.00;17.77;;;6.70;63.60;;;;;;348300;28;819;-57
2023/12/26 00:35:54;;;;;;;20.33;17.40;;;6.70;63.60;;;;;;348308;28;916;-58
2023/12/26 00:36:05;;;;;;;21.60;17.10;;;6.70;63.60;;;;;;348144;28;1206;-59
2023/12/26 00:36:19;;;;;;;21.75;17.30;;;6.70;63.50;;;;;;348275;28;916;-58
2023/12/26 00:36:29;;;;;;;22.20;17.98;;;6.70;63.50;;;;;;348252;28;1020;-59
2023/12/26 00:36:40;;;;;;;23.02;17.98;;;6.70;63.40;;;;;;348176;28;909;-58
2023/12/26 00:36:51;;;;;;;23.52;17.77;;;6.70;63.40;;;;;;348280;28;886;-58
2023/12/26 00:37:02;;;;;;;21.98;16.90;;;6.60;63.40;;;;;;348209;28;1178;-58
2023/12/26 00:37:13;;;;;;;20.30;16.85;;;6.70;63.40;;;;;;348283;28;977;-58
2023/12/26 00:37:24;;;;;;;21.30;17.17;;;6.70;63.40;;;;;;348167;28;976;-58
2023/12/26 00:37:34;;;;;;;21.90;17.33;;;6.70;63.50;;;;;;348270;28;977;-59
2023/12/26 00:37:45;;;;;;;23.83;17.45;;;6.70;63.50;;;;;;348292;28;1178;-58
2023/12/26 00:37:58;;;;;;;24.42;17.38;;;6.70;63.40;;;;;;348255;28;969;-58
2023/12/26 00:38:09;;;;;;;24.23;17.23;;;6.70;63.40;;;;;;348175;28;1055;-59
2023/12/26 00:38:21;;;;;;;23.73;17.42;;;6.70;63.40;;;;;;348326;28;889;-59
2023/12/26 00:38:32;;;;;;;23.70;17.25;;;6.70;63.40;;;;;;348217;28;1155;-58
2023/12/26 00:38:42;;;;;;;22.58;17.48;;;6.70;63.40;;;;;;348251;28;1096;-59
2023/12/26 00:38:53;;;;;;;23.30;17.30;;;6.70;63.30;;;;;;348208;28;2156;-59
2023/12/26 00:39:04;;;;;;;20.93;16.87;;;6.70;63.30;;;;;;348289;28;996;-59
2023/12/26 00:39:15;;;;;;;21.23;16.90;;;6.60;63.30;;;;;;348228;28;1107;-60
2023/12/26 00:39:25;;;;;;;20.60;16.85;;;6.60;63.30;;;;;;348177;28;1620;-58
2023/12/26 00:39:36;;;;;;;20.40;16.42;;;6.70;63.30;;;;;;348160;28;1268;-59
2023/12/26 00:39:47;;;;;;;19.30;16.02;;;6.60;63.20;;;;;;348188;28;1441;-58
2023/12/26 00:39:58;;;;;;;20.00;15.87;;;6.60;63.20;;;;;;348258;28;988;-59
2023/12/26 00:40:09;;;;;;;21.85;16.65;;;6.60;63.20;;;;;;348223;28;1070;-58
2023/12/26 00:40:20;;;;;;;22.38;16.75;;;6.60;63.10;;;;;;348221;28;951;-58
2023/12/26 00:40:31;;;;;;;23.05;16.85;;;6.60;63.10;;;;;;348232;28;1069;-58
2023/12/26 00:40:42;;;;;;;22.65;16.45;;;6.60;63.10;;;;;;348240;28;1059;-58
2023/12/26 00:40:52;;;;;;;22.15;16.55;;;6.60;63.10;;;;;;348227;28;1175;-59
2023/12/26 00:41:04;;;;;;;20.90;16.10;;;6.60;63.00;;;;;;348172;28;1024;-59
2023/12/26 00:41:16;;;;;;;20.55;16.13;;;6.60;63.00;;;;;;348273;28;981;-58
2023/12/26 00:41:27;;;;;;;20.73;16.35;;;6.60;63.00;;;;;;348165;28;1064;-59
2023/12/26 00:41:37;;;;;;;20.63;16.33;;;6.60;63.00;;;;;;348186;28;1153;-58
2023/12/26 00:41:48;;;;;;;20.58;16.25;;;6.60;63.00;;;;;;348291;28;1036;-58
2023/12/26 00:41:59;;;;;;;19.63;15.77;;;6.60;63.00;;;;;;348218;28;2121;-58
2023/12/26 00:42:11;;;;;;;19.13;16.00;;;6.60;63.00;;;;;;348202;28;1036;-59
2023/12/26 00:42:22;;;;;;;20.17;16.08;;;6.60;63.10;;;;;;348289;28;1012;-59
2023/12/26 00:42:32;;;;;;;20.17;16.02;;;6.60;63.10;;;;;;348275;28;968;-59
2023/12/26 00:42:44;;;;;;;20.55;15.85;;;6.50;63.10;;;;;;348213;28;1124;-59
2023/12/26 00:42:55;;;;;;;19.75;16.15;;;6.50;63.00;;;;;;348218;28;1001;-58
2023/12/26 00:43:05;;;;;;;19.98;16.05;;;6.50;63.10;;;;;;348252;28;1091;-59
2023/12/26 00:43:16;;;;;;;19.70;15.65;;;6.50;63.10;;;;;;348173;28;1101;-59
2023/12/26 00:43:27;;;;;;;20.45;15.60;;;6.60;63.10;;;;;;348286;28;886;-60
2023/12/26 00:43:38;;;;;;;20.25;15.82;;;6.50;63.10;;;;;;348247;28;1091;-59
2023/12/26 00:43:51;;;;;;;19.73;16.07;;;6.50;63.00;;;;;;348182;28;1029;-60
2023/12/26 00:44:02;;;;;;;18.67;15.98;;;6.50;63.00;;;;;;348213;28;1068;-58
2023/12/26 00:44:13;;;;;;;18.55;16.25;;;6.50;63.00;;;;;;348200;28;1528;-59
2023/12/26 00:44:24;;;;;;;20.42;16.83;;;6.50;63.00;;;;;;348213;28;1095;-59
2023/12/26 00:44:35;;;;;;;21.63;17.13;;;6.50;63.00;;;;;;348268;28;980;-59
2023/12/26 00:44:45;;;;;;;21.48;17.13;;;6.60;63.00;;;;;;348156;28;1254;-60
2023/12/26 00:44:57;;;;;;;20.38;17.10;;;6.50;63.00;;;;;;348222;28;914;-60
2023/12/26 00:45:08;;;;;;;21.20;17.40;;;6.50;63.10;;;;;;348293;28;917;-59
2023/12/26 00:45:22;;;;;;;21.88;17.58;;;6.50;63.10;;;;;;348280;28;1063;-59
2023/12/26 00:45:33;;;;;;;20.67;17.15;;;6.50;63.00;;;;;;348170;28;1484;-59
2023/12/26 00:45:43;;;;;;;20.40;16.83;;;6.50;63.00;;;;;;348249;28;1036;-59
2023/12/26 00:45:54;;;;;;;20.88;16.73;;;6.50;62.90;;;;;;348271;28;1024;-59
2023/12/26 00:46:06;;;;;;;21.10;16.23;;;6.50;62.90;;;;;;348186;28;891;-59
2023/12/26 00:46:17;;;;;;;20.63;16.33;;;6.50;63.00;;;;;;348271;28;1000;-59
2023/12/26 00:46:28;;;;;;;20.05;16.50;;;6.50;62.90;;;;;;348258;28;1016;-58
2023/12/26 00:46:39;;;;;;;19.55;16.77;;;6.50;62.90;;;;;;348301;28;1336;-60
2023/12/26 00:46:50;;;;;;;18.92;16.30;;;6.50;63.00;;;;;;348162;28;1104;-59
2023/12/26 00:47:01;;;;;;;20.23;16.25;;;6.50;63.00;;;;;;348240;28;974;-60
2023/12/26 00:47:12;;;;;;;21.73;16.67;;;6.50;63.00;;;;;;348159;28;1371;-59
2023/12/26 00:47:22;;;;;;;22.23;16.95;;;6.50;63.10;;;;;;348181;28;1139;-59
2023/12/26 00:47:34;;;;;;;21.63;17.03;;;6.50;63.10;;;;;;348184;28;1268;-59
2023/12/26 00:47:44;;;;;;;21.13;16.33;;;6.50;63.00;;;;;;348351;28;1016;-59
2023/12/26 00:47:57;;;;;;;21.73;16.67;;;6.50;63.00;;;;;;348272;28;988;-60
2023/12/26 00:48:08;;;;;;;21.65;17.33;;;6.50;63.00;;;;;;348243;28;1123;-58
2023/12/26 00:48:18;;;;;;;21.35;17.23;;;6.50;63.00;;;;;;348246;28;1020;-59
2023/12/26 00:48:29;;;;;;;20.20;16.52;;;6.50;63.10;;;;;;348292;28;842;-58
2023/12/26 00:48:40;;;;;;;20.83;16.47;;;6.50;63.10;;;;;;348274;28;889;-58
2023/12/26 00:48:50;;;;;;;20.48;16.38;;;6.50;63.00;;;;;;348252;28;1948;-58
2023/12/26 00:49:01;;;;;;;20.80;16.60;;;6.50;63.10;;;;;;348203;28;1047;-58
2023/12/26 00:49:13;;;;;;;20.02;16.75;;;6.50;63.00;;;;;;348261;28;1162;-58
2023/12/26 00:49:24;;;;;;;21.30;16.98;;;6.50;63.00;;;;;;348221;28;1135;-57
2023/12/26 00:49:35;;;;;;;20.52;16.65;;;6.50;63.10;;;;;;348247;28;1009;-58
2023/12/26 00:49:45;;;;;;;20.38;16.65;;;6.50;63.20;;;;;;348210;28;1039;-59
2023/12/26 00:49:57;;;;;;;19.02;16.75;;;6.50;63.20;;;;;;348264;28;1115;-61
2023/12/26 00:50:11;;;;;;;20.33;17.13;;;6.50;63.20;;;;;;348271;28;1845;-58
2023/12/26 00:50:22;;;;;;;19.95;16.77;;;6.50;63.20;;;;;;348187;28;1039;-59
2023/12/26 00:50:34;;;;;;;19.42;16.73;;;6.50;63.20;;;;;;348261;28;1678;-59
2023/12/26 00:50:45;;;;;;;21.00;17.02;;;6.50;63.20;;;;;;348261;28;924;-59
2023/12/26 00:50:56;;;;;;;21.83;17.15;;;6.50;63.20;;;;;;348243;28;1056;-61
2023/12/26 00:51:06;;;;;;;22.83;17.17;;;6.50;63.20;;;;;;348185;28;1032;-58
2023/12/26 00:51:17;;;;;;;22.88;17.13;;;6.50;63.30;;;;;;348254;28;956;-58
2023/12/26 00:51:30;;;;;;;22.97;17.20;;;6.50;63.30;;;;;;348190;28;1909;-59
2023/12/26 00:51:40;;;;;;;21.88;17.42;;;6.50;63.40;;;;;;348281;28;858;-59
2023/12/26 00:51:52;;;;;;;21.52;17.30;;;6.50;63.40;;;;;;348223;28;929;-59
2023/12/26 00:52:03;;;;;;;20.08;16.58;;;6.50;63.40;;;;;;348210;28;1024;-58
2023/12/26 00:52:14;;;;;;;20.35;16.45;;;6.50;63.40;;;;;;348313;28;993;-59
2023/12/26 00:52:25;;;;;;;21.73;16.88;;;6.50;63.40;;;;;;348255;28;1076;-60
2023/12/26 00:52:36;;;;;;;22.85;17.48;;;6.50;63.40;;;;;;348203;28;2006;-57
2023/12/26 00:52:47;;;;;;;22.33;17.10;;;6.40;63.40;;;;;;348276;28;996;-60
2023/12/26 00:52:58;;;;;;;22.60;16.77;;;6.50;63.40;;;;;;348335;28;858;-59
2023/12/26 00:53:09;;;;;;;21.77;16.73;;;6.50;63.40;;;;;;348285;28;1023;-60
2023/12/26 00:53:20;;;;;;;21.77;17.33;;;6.50;63.40;;;;;;348259;28;1024;-58
2023/12/26 00:53:31;;;;;;;21.48;17.35;;;6.40;63.40;;;;;;348292;28;1036;-60
2023/12/26 00:53:41;;;;;;;21.45;17.50;;;6.40;63.30;;;;;;348275;28;1422;-58
2023/12/26 00:53:52;;;;;;;22.70;17.17;;;6.40;63.30;;;;;;348351;28;885;-60
2023/12/26 00:54:03;;;;;;;22.38;17.05;;;6.50;63.30;;;;;;348152;28;1115;-58
2023/12/26 00:54:14;;;;;;;22.70;16.90;;;6.50;63.30;;;;;;348273;28;1055;-59
2023/12/26 00:54:25;;;;;;;20.90;16.67;;;6.40;63.30;;;;;;348324;28;1067;-60
2023/12/26 00:54:36;;;;;;;21.85;16.83;;;6.50;63.20;;;;;;348326;28;1086;-59
2023/12/26 00:54:47;;;;;;;21.45;16.67;;;6.40;63.20;;;;;;348290;28;1092;-58
2023/12/26 00:54:58;;;;;;;20.75;16.50;;;6.50;63.20;;;;;;348343;28;964;-59
2023/12/26 00:55:09;;;;;;;20.85;16.35;;;6.50;63.20;;;;;;348283;28;968;-59
2023/12/26 00:55:20;;;;;;;20.60;16.73;;;6.40;63.20;;;;;;348236;28;1126;-60
2023/12/26 00:55:31;;;;;;;20.80;16.95;;;6.50;63.20;;;;;;348221;28;1128;-59
2023/12/26 00:55:41;;;;;;;21.02;17.42;;;6.50;63.20;;;;;;348225;28;1171;-59
2023/12/26 00:55:53;;;;;;;20.50;16.98;;;6.50;63.20;;;;;;348319;28;992;-58
2023/12/26 00:56:04;;;;;;;20.35;16.67;;;6.40;63.20;;;;;;348240;28;1087;-59
2023/12/26 00:56:15;;;;;;;20.65;16.90;;;6.40;63.20;;;;;;348279;28;1079;-59
2023/12/26 00:56:26;;;;;;;21.38;17.00;;;6.40;63.30;;;;;;348317;28;1008;-59
2023/12/26 00:56:37;;;;;;;22.02;17.30;;;6.40;63.30;;;;;;348353;28;1079;-58
2023/12/26 00:56:48;;;;;;;21.85;17.63;;;6.40;63.30;;;;;;348282;28;833;-60
2023/12/26 00:56:59;;;;;;;21.48;17.73;;;6.40;63.30;;;;;;348242;28;1040;-58
2023/12/26 00:57:10;;;;;;;22.17;17.60;;;6.40;63.30;;;;;;348250;28;1095;-58
2023/12/26 00:57:21;;;;;;;21.35;16.88;;;6.40;63.20;;;;;;348092;28;1732;-58
2023/12/26 00:57:33;;;;;;;23.44;17.64;;;6.40;63.20;;;;;;348267;28;1056;-58
2023/12/26 00:57:43;;;;;;;23.98;17.70;;;6.40;63.10;;;;;;348261;28;1052;-58
2023/12/26 00:57:56;;;;;;;23.70;17.35;;;6.40;63.20;;;;;;348329;28;817;-59
2023/12/26 00:58:07;;;;;;;21.50;16.73;;;6.40;63.20;;;;;;348270;28;1079;-59
2023/12/26 00:58:18;;;;;;;22.00;17.03;;;6.40;63.20;;;;;;348306;28;901;-59
2023/12/26 00:58:29;;;;;;;20.77;16.90;;;6.40;63.10;;;;;;348160;28;1024;-58
2023/12/26 00:58:39;;;;;;;20.42;16.90;;;6.40;63.10;;;;;;348326;28;897;-59